Time;durP1;ratioP1;P1;durP2;ratioP2;P2;SDS_P1;SDS_P2;PMS_P1;PMS_P2;Temp;Humidity;BMP_temperature;BMP_pressure;BME280_temperature;BME280_humidity;BME280_pressure;Samples;Min_cycle;Max_cycle;Signal;HPM_P1;HPM_P2
2022/05/10 00:02:11;;;;;;;;;;;;;;;11.97;37.94;96122.06;4999924;28;20548;-67
2022/05/10 00:04:36;;;;;;;;;;;;;;;11.90;37.88;96113.94;4999831;28;20051;-67
2022/05/10 00:07:01;;;;;;;;;;;;;;;11.88;38.13;96115.13;5003541;28;20081;-66
2022/05/10 00:09:27;;;;;;;;;;;;;;;11.83;37.93;96118.31;5004437;28;20009;-66
2022/05/10 00:11:52;;;;;;;;;;;;;;;11.81;37.83;96111.50;5000779;28;19963;-67
2022/05/10 00:14:17;;;;;;;;;;;;;;;11.78;38.83;96107.34;4999095;28;20068;-67
2022/05/10 00:16:43;;;;;;;;;;;;;;;11.79;38.56;96106.31;4998552;28;20011;-67
2022/05/10 00:19:12;;;;;;;;;;;;;;;11.77;38.69;96105.69;5002435;28;20020;-67
2022/05/10 00:21:37;;;;;;;;;;;;;;;11.77;38.50;96103.00;5001007;28;20570;-67
2022/05/10 00:24:03;;;;;;;;;;;;;;;11.76;38.91;96101.34;5001203;28;19986;-66
2022/05/10 00:26:28;;;;;;;;;;;;;;;11.82;38.42;96097.97;4998697;28;19990;-67
2022/05/10 00:28:53;;;;;;;;;;;;;;;11.86;38.75;96093.13;5010975;28;20446;-66
2022/05/10 00:31:18;;;;;;;;;;;;;;;11.85;38.77;96092.31;5001353;28;20011;-67
2022/05/10 00:33:44;;;;;;;;;;;;;;;11.92;38.30;96091.59;4999798;28;20477;-67
2022/05/10 00:36:10;;;;;;;;;;;;;;;11.92;38.04;96089.75;4997561;28;20169;-67
2022/05/10 00:38:35;;;;;;;;;;;;;;;11.79;39.05;96094.84;5024865;28;19989;-66
2022/05/10 00:41:16;;;;;;;;;;;;;;;11.82;38.68;96092.66;5007625;28;19971;-67
2022/05/10 00:43:42;;;;;;;;;;;;;;;11.78;38.72;96080.66;5001163;28;19967;-67
2022/05/10 00:46:08;;;;;;;;;;;;;;;11.80;38.69;96085.81;5002116;28;19997;-67
2022/05/10 00:48:52;;;;;;;;;;;;;;;11.73;39.19;96083.03;4996444;28;19961;-66
2022/05/10 00:51:26;;;;;;;;;;;;;;;11.70;39.28;96081.53;5003491;28;20391;-67
2022/05/10 00:54:05;;;;;;;;;;;;;;;11.68;39.75;96083.53;5003017;28;20200;-66
2022/05/10 00:56:35;;;;;;;;;;;;;;;11.74;39.19;96080.19;4997551;28;20003;-66
2022/05/10 00:59:07;;;;;;;;;;;;;;;11.70;39.28;96075.38;4996961;28;20089;-67
2022/05/10 01:01:33;;;;;;;;;;;;;;;11.68;39.37;96067.53;5003562;28;19986;-67
2022/05/10 01:03:59;;;;;;;;;;;;;;;11.72;39.00;96066.19;4999796;28;19960;-67
2022/05/10 01:06:27;;;;;;;;;;;;;;;11.67;39.42;96063.22;5000997;28;20719;-67
2022/05/10 01:08:58;;;;;;;;;;;;;;;11.69;39.24;96065.72;5007057;28;20544;-67
2022/05/10 01:11:43;;;;;;;;;;;;;;;11.64;39.48;96059.06;5003604;28;20470;-67
2022/05/10 01:14:12;;;;;;;;;;;;;;;11.69;39.13;96060.38;5000482;28;19980;-67
2022/05/10 01:16:38;;;;;;;;;;;;;;;11.64;39.62;96064.41;5000779;28;20372;-67
2022/05/10 01:19:03;;;;;;;;;;;;;;;11.64;40.16;96051.06;5001368;28;20606;-67
2022/05/10 01:21:35;;;;;;;;;;;;;;;11.66;40.24;96052.72;4998803;28;19997;-66
2022/05/10 01:24:03;;;;;;;;;;;;;;;11.69;39.67;96050.53;4998770;28;20356;-67
2022/05/10 01:26:38;;;;;;;;;;;;;;;11.66;39.72;96052.72;5014179;28;19982;-67
2022/05/10 01:29:04;;;;;;;;;;;;;;;11.64;39.56;96043.06;5017491;28;19965;-66
2022/05/10 01:31:34;;;;;;;;;;;;;;;11.70;39.27;96046.84;5003847;28;20568;-66
2022/05/10 01:34:01;;;;;;;;;;;;;;;11.67;39.65;96049.03;5000627;28;20066;-67
2022/05/10 01:36:29;;;;;;;;;;;;;;;11.60;39.38;96049.72;5001144;28;19971;-67
2022/05/10 01:38:56;;;;;;;;;;;;;;;11.61;39.28;96046.06;5008692;28;19984;-67
2022/05/10 01:41:23;;;;;;;;;;;;;;;11.58;39.78;96038.41;5002611;28;20002;-66
2022/05/10 01:43:51;;;;;;;;;;;;;;;11.54;39.83;96033.59;5004710;28;19985;-67
2022/05/10 01:46:24;;;;;;;;;;;;;;;11.62;39.49;96039.72;4999598;28;19991;-67
2022/05/10 01:48:50;;;;;;;;;;;;;;;11.54;39.97;96045.09;5002444;28;20568;-64
2022/05/10 01:51:18;;;;;;;;;;;;;;;11.57;40.22;96042.09;5007134;28;20367;-66
2022/05/10 01:53:43;;;;;;;;;;;;;;;11.68;39.48;96037.38;5002492;28;19987;-66
2022/05/10 01:56:10;;;;;;;;;;;;;;;11.64;39.78;96040.41;5002434;28;19962;-66
2022/05/10 01:58:36;;;;;;;;;;;;;;;11.69;39.47;96039.03;5003876;28;19981;-66
2022/05/10 02:01:03;;;;;;;;;;;;;;;11.68;39.75;96042.69;5005034;28;20118;-66
2022/05/10 02:03:36;;;;;;;;;;;;;;;11.62;39.81;96045.06;5000949;28;20629;-66
2022/05/10 02:06:07;;;;;;;;;;;;;;;11.64;39.64;96037.72;5002616;28;20589;-66
2022/05/10 02:08:38;;;;;;;;;;;;;;;11.64;39.63;96040.41;5010074;28;20017;-66
2022/05/10 02:11:05;;;;;;;;;;;;;;;11.63;40.01;96038.72;5010417;28;20482;-64
2022/05/10 02:13:31;;;;;;;;;;;;;;;11.61;39.43;96038.06;5005009;28;19981;-66
2022/05/10 02:16:00;;;;;;;;;;;;;;;11.62;40.00;96042.41;5005621;28;20343;-66
2022/05/10 02:18:25;;;;;;;;;;;;;;;11.60;39.74;96041.72;5008995;28;20010;-66
2022/05/10 02:20:56;;;;;;;;;;;;;;;11.60;39.71;96041.72;5019402;28;20306;-66
2022/05/10 02:23:27;;;;;;;;;;;;;;;11.66;39.38;96042.06;5007279;28;19982;-66
2022/05/10 02:25:54;;;;;;;;;;;;;;;11.69;39.46;96042.53;5014170;28;20062;-66
2022/05/10 02:28:22;;;;;;;;;;;;;;;11.69;40.21;96039.03;5014064;28;20564;-66
2022/05/10 02:30:47;;;;;;;;;;;;;;;11.71;39.91;96035.19;5002343;28;19978;-66
2022/05/10 02:33:13;;;;;;;;;;;;;;;11.72;39.65;96033.34;5007349;28;20006;-67
2022/05/10 02:35:43;;;;;;;;;;;;;;;11.72;39.53;96026.19;5012831;28;19969;-66
2022/05/10 02:38:08;;;;;;;;;;;;;;;11.77;39.22;96031.81;5019808;28;19989;-67
2022/05/10 02:40:33;;;;;;;;;;;;;;;11.72;39.76;96034.19;5004588;28;20121;-67
2022/05/10 02:42:59;;;;;;;;;;;;;;;11.71;39.14;96021.84;5018486;28;20088;-67
2022/05/10 02:45:24;;;;;;;;;;;;;;;11.75;39.26;96023.16;5010091;28;20209;-67
2022/05/10 02:47:49;;;;;;;;;;;;;;;11.73;38.98;96008.34;5024211;28;19971;-67
2022/05/10 02:50:17;;;;;;;;;;;;;;;11.72;39.45;96014.66;5010285;28;19988;-67
2022/05/10 02:52:42;;;;;;;;;;;;;;;11.74;39.59;96010.00;5022014;28;20444;-67
2022/05/10 02:55:09;;;;;;;;;;;;;;;11.76;39.40;96002.63;5010571;28;20015;-67
2022/05/10 02:57:34;;;;;;;;;;;;;;;11.75;39.41;96001.00;5021534;28;19995;-67
2022/05/10 03:00:00;;;;;;;;;;;;;;;11.72;39.17;96001.34;5018964;28;20007;-67
2022/05/10 03:02:35;;;;;;;;;;;;;;;11.73;39.09;96003.00;5023134;28;20004;-66
2022/05/10 03:05:00;;;;;;;;;;;;;;;11.69;39.23;95996.38;5013357;28;19955;-67
2022/05/10 03:07:25;;;;;;;;;;;;;;;11.68;39.18;95994.69;5023396;28;19974;-67
2022/05/10 03:09:51;;;;;;;;;;;;;;;11.70;39.25;95995.38;5005768;28;20097;-66
2022/05/10 03:12:16;;;;;;;;;;;;;;;11.77;39.36;95993.66;5020610;28;20066;-67
2022/05/10 03:14:41;;;;;;;;;;;;;;;11.79;39.07;95998.81;5011556;28;19993;-67
2022/05/10 03:17:08;;;;;;;;;;;;;;;11.73;39.52;95992.34;5023143;28;19988;-67
2022/05/10 03:19:34;;;;;;;;;;;;;;;11.72;39.72;95988.00;5016730;28;20471;-67
2022/05/10 03:21:59;;;;;;;;;;;;;;;11.67;39.80;95987.72;5022909;28;20049;-67
2022/05/10 03:24:24;;;;;;;;;;;;;;;11.67;39.60;95985.03;5010107;28;20327;-67
2022/05/10 03:26:50;;;;;;;;;;;;;;;11.64;39.55;95979.06;5022561;28;20616;-67
2022/05/10 03:29:16;;;;;;;;;;;;;;;11.66;39.60;95981.53;5009533;28;19994;-67
2022/05/10 03:31:41;;;;;;;;;;;;;;;11.63;39.67;95985.38;5019974;28;20259;-67
2022/05/10 03:36:50;;;;;;;;;;;;;;;11.61;39.39;95984.75;5018875;28;19981;-66
2022/05/10 03:39:15;;;;;;;;;;;;;;;11.56;39.96;95989.75;5017434;28;19963;-66
2022/05/10 03:41:41;;;;;;;;;;;;;;;11.59;39.32;95984.06;5019202;28;20299;-67
2022/05/10 03:44:07;;;;;;;;;;;;;;;11.58;39.87;95982.44;5011448;28;20188;-67
2022/05/10 03:46:32;;;;;;;;;;;;;;;11.55;39.58;95980.09;5009206;28;20368;-67
2022/05/10 03:48:57;;;;;;;;;;;;;;;11.55;39.49;95988.09;5022288;28;19970;-67
2022/05/10 03:51:22;;;;;;;;;;;;;;;11.56;39.65;95988.94;5020386;28;20233;-67
2022/05/10 03:53:48;;;;;;;;;;;;;;;11.61;39.49;95990.06;5022755;28;20427;-67
2022/05/10 03:56:13;;;;;;;;;;;;;;;11.52;40.42;95989.28;5011067;28;20089;-67
2022/05/10 03:58:38;;;;;;;;;;;;;;;11.61;39.95;95984.75;5020491;28;20168;-67
2022/05/10 04:01:06;;;;;;;;;;;;;;;11.69;40.14;95993.72;5013133;28;20012;-67
2022/05/10 04:03:31;;;;;;;;;;;;;;;11.73;40.12;95989.69;5022854;28;20082;-67
2022/05/10 04:05:56;;;;;;;;;;;;;;;11.82;39.59;95985.94;5018828;28;20339;-67
2022/05/10 04:08:23;;;;;;;;;;;;;;;11.86;39.78;95981.06;5015241;28;20335;-67
2022/05/10 04:10:49;;;;;;;;;;;;;;;11.94;39.80;95989.03;5002637;28;20020;-67
2022/05/10 04:13:14;;;;;;;;;;;;;;;11.93;40.05;95975.88;5021136;28;20040;-67
2022/05/10 04:15:39;;;;;;;;;;;;;;;11.92;39.64;95984.88;5011286;28;19972;-67
2022/05/10 04:18:04;;;;;;;;;;;;;;;11.92;39.35;95977.69;5019648;28;19986;-66
2022/05/10 04:20:30;;;;;;;;;;;;;;;11.92;39.12;95979.53;5012963;28;19964;-66
2022/05/10 04:22:55;;;;;;;;;;;;;;;11.90;39.03;95977.06;5017870;28;19990;-67
2022/05/10 04:25:23;;;;;;;;;;;;;;;11.88;39.02;95984.41;5012631;28;20018;-67
2022/05/10 04:27:50;;;;;;;;;;;;;;;11.91;39.17;95978.72;5015419;28;20481;-67
2022/05/10 04:30:15;;;;;;;;;;;;;;;11.92;39.19;95982.19;5008435;28;20380;-67
2022/05/10 04:32:41;;;;;;;;;;;;;;;11.99;39.26;95980.47;5018146;28;20007;-67
2022/05/10 04:35:07;;;;;;;;;;;;;;;12.01;39.25;95976.63;5022025;28;20497;-67
2022/05/10 04:37:32;;;;;;;;;;;;;;;12.09;38.87;95978.44;5021307;28;20336;-67
2022/05/10 04:42:44;;;;;;;;;;;;;;;12.21;39.29;95978.84;5016818;28;19995;-66
2022/05/10 04:45:09;;;;;;;;;;;;;;;12.33;39.39;95981.91;5021470;28;20463;-67
2022/05/10 04:47:35;;;;;;;;;;;;;;;12.49;39.82;95982.78;5017891;28;20060;-67
2022/05/10 04:50:01;;;;;;;;;;;;;;;12.59;39.49;95986.03;5012612;28;20455;-67
2022/05/10 04:52:26;;;;;;;;;;;;;;;12.64;40.25;95990.81;5019493;28;19974;-67
2022/05/10 04:54:51;;;;;;;;;;;;;;;12.85;38.89;95992.78;5010688;28;19994;-67
2022/05/10 04:57:17;;;;;;;;;;;;;;;12.97;39.01;95992.31;5021425;28;19980;-67
2022/05/10 04:59:42;;;;;;;;;;;;;;;13.12;38.94;95990.50;5010668;28;20315;-67
2022/05/10 05:02:07;;;;;;;;;;;;;;;13.31;38.70;95993.63;5025435;28;19992;-67
2022/05/10 05:04:32;;;;;;;;;;;;;;;13.42;38.60;95990.47;5012313;28;19965;-67
2022/05/10 05:06:58;;;;;;;;;;;;;;;13.51;38.72;95987.69;5025405;28;20517;-67
2022/05/10 05:09:23;;;;;;;;;;;;;;;13.63;38.96;95986.19;5022981;28;20380;-67
2022/05/10 05:11:48;;;;;;;;;;;;;;;13.77;37.96;95989.84;5012515;28;19961;-67
2022/05/10 05:14:13;;;;;;;;;;;;;;;13.93;37.56;95993.31;5025564;28;20069;-67
2022/05/10 05:16:39;;;;;;;;;;;;;;;14.09;37.28;95992.25;5014189;28;19998;-67
2022/05/10 05:19:05;;;;;;;;;;;;;;;14.23;36.76;95990.53;5023251;28;19973;-67
2022/05/10 05:21:30;;;;;;;;;;;;;;;14.35;37.80;95993.53;5015172;28;20625;-67
2022/05/10 05:23:55;;;;;;;;;;;;;;;14.42;36.83;95994.38;5013548;28;19973;-67
2022/05/10 05:26:22;;;;;;;;;;;;;;;14.51;35.84;95995.06;5020139;28;20447;-67
2022/05/10 05:28:47;;;;;;;;;;;;;;;14.61;37.81;95999.28;5017508;28;19949;-67
2022/05/10 05:31:12;;;;;;;;;;;;;;;14.71;35.61;95989.88;5033718;28;19956;-67
2022/05/10 05:33:38;;;;;;;;;;;;;;;14.81;36.95;95994.94;5020409;28;19976;-67
2022/05/10 05:36:03;;;;;;;;;;;;;;;14.93;37.52;95995.19;5016588;28;20336;-67
2022/05/10 05:38:28;;;;;;;;;;;;;;;15.04;36.39;96003.72;5018406;28;19987;-67
2022/05/10 05:40:54;;;;;;;;;;;;;;;15.12;35.78;95997.38;5014144;28;19960;-67
2022/05/10 05:43:19;;;;;;;;;;;;;;;15.17;36.16;96001.13;5018156;28;20444;-67
2022/05/10 05:45:45;;;;;;;;;;;;;;;15.26;34.90;95998.28;5016605;28;20009;-67
2022/05/10 05:48:10;;;;;;;;;;;;;;;15.13;33.60;95997.16;5024395;28;19963;-67
2022/05/10 05:50:35;;;;;;;;;;;;;;;15.21;34.34;96002.38;5014242;28;20040;-67
2022/05/10 05:53:00;;;;;;;;;;;;;;;15.32;33.51;95997.47;5023955;28;19999;-67
2022/05/10 05:55:26;;;;;;;;;;;;;;;15.42;33.63;95997.94;5019479;28;20006;-67
2022/05/10 05:57:51;;;;;;;;;;;;;;;15.54;33.90;95994.69;5018628;28;19971;-67
2022/05/10 06:00:17;;;;;;;;;;;;;;;15.70;33.33;95993.50;5015171;28;19985;-67
2022/05/10 06:02:43;;;;;;;;;;;;;;;15.78;33.58;95989.84;5022576;28;20038;-67
2022/05/10 06:05:08;;;;;;;;;;;;;;;15.86;33.47;95986.97;5020595;28;20432;-67
2022/05/10 06:07:33;;;;;;;;;;;;;;;15.94;33.08;95986.78;5020473;28;19949;-67
2022/05/10 06:09:59;;;;;;;;;;;;;;;16.16;33.34;95980.41;5010771;28;19995;-67
2022/05/10 06:12:24;;;;;;;;;;;;;;;16.24;32.87;95990.94;5017049;28;19957;-67
2022/05/10 06:14:49;;;;;;;;;;;;;;;16.37;33.45;95993.69;5009630;28;20429;-67
2022/05/10 06:17:15;;;;;;;;;;;;;;;16.51;33.00;95991.00;5018870;28;19964;-67
2022/05/10 06:19:40;;;;;;;;;;;;;;;16.66;32.98;95993.47;5022612;28;20155;-67
2022/05/10 06:22:06;;;;;;;;;;;;;;;16.80;32.43;95996.16;5009921;28;19969;-67
2022/05/10 06:24:31;;;;;;;;;;;;;;;16.98;32.14;95987.41;5003854;28;19951;-67
2022/05/10 06:26:56;;;;;;;;;;;;;;;17.15;32.04;95987.84;5016442;28;20602;-67
2022/05/10 06:29:21;;;;;;;;;;;;;;;17.36;31.62;95989.41;5021027;28;19968;-67
2022/05/10 06:31:47;;;;;;;;;;;;;;;17.63;31.66;95986.63;5012966;28;20486;-67
2022/05/10 06:34:12;;;;;;;;;;;;;;;17.90;31.01;95982.97;5013635;28;20396;-67
2022/05/10 06:36:38;;;;;;;;;;;;;;;18.22;30.27;95991.06;5012284;28;19944;-67
2022/05/10 06:39:03;;;;;;;;;;;;;;;18.52;30.56;95981.50;5018415;28;20168;-67
2022/05/10 06:41:31;;;;;;;;;;;;;;;18.86;29.35;95983.97;5013849;28;20051;-67
2022/05/10 06:43:56;;;;;;;;;;;;;;;19.07;28.73;95986.22;5018304;28;20287;-67
2022/05/10 06:46:21;;;;;;;;;;;;;;;19.46;29.49;95982.50;5020751;28;20387;-67
2022/05/10 06:48:47;;;;;;;;;;;;;;;19.69;29.56;95986.38;5022257;28;19939;-68
2022/05/10 06:51:13;;;;;;;;;;;;;;;19.30;29.13;95984.75;5017281;28;19967;-68
2022/05/10 06:53:39;;;;;;;;;;;;;;;19.33;30.22;95983.47;5020792;28;19966;-68
2022/05/10 06:56:04;;;;;;;;;;;;;;;19.78;28.53;95985.00;5011544;28;19939;-68
2022/05/10 06:58:29;;;;;;;;;;;;;;;19.35;29.15;95978.69;5022916;28;19962;-68
2022/05/10 07:00:55;;;;;;;;;;;;;;;19.84;28.66;95975.16;5020013;28;20060;-68
2022/05/10 07:03:26;;;;;;;;;;;;;;;19.94;28.11;95977.31;5018958;28;20329;-68
2022/05/10 07:05:51;;;;;;;;;;;;;;;20.10;28.07;95973.16;5015221;28;19955;-68
2022/05/10 07:08:16;;;;;;;;;;;;;;;19.20;28.54;95974.47;5012713;28;20331;-67
2022/05/10 07:10:42;;;;;;;;;;;;;;;19.57;28.40;95972.81;5007424;28;19959;-67
2022/05/10 07:13:07;;;;;;;;;;;;;;;19.69;28.07;95973.69;5007527;28;20600;-68
2022/05/10 07:15:32;;;;;;;;;;;;;;;20.12;27.46;95971.03;5020557;28;19980;-67
2022/05/10 07:17:58;;;;;;;;;;;;;;;19.89;28.84;95979.88;5018620;28;19953;-67
2022/05/10 07:20:23;;;;;;;;;;;;;;;19.75;28.77;95973.84;5017609;28;19944;-67
2022/05/10 07:22:48;;;;;;;;;;;;;;;19.94;28.13;95972.72;5014542;28;20427;-67
2022/05/10 07:25:14;;;;;;;;;;;;;;;20.01;28.23;95971.81;5020067;28;19957;-67
2022/05/10 07:27:40;;;;;;;;;;;;;;;20.19;28.09;95973.66;5016035;28;20337;-67
2022/05/10 07:30:05;;;;;;;;;;;;;;;20.03;27.41;95970.56;5019699;28;19921;-67
2022/05/10 07:32:30;;;;;;;;;;;;;;;19.39;28.74;95969.09;5021206;28;20017;-67
2022/05/10 07:34:56;;;;;;;;;;;;;;;18.96;28.72;95968.06;5020926;28;19966;-67
2022/05/10 07:37:21;;;;;;;;;;;;;;;19.12;29.44;95971.22;5017758;28;20041;-67
2022/05/10 07:39:46;;;;;;;;;;;;;;;19.67;28.01;95964.16;5016502;28;19934;-66
2022/05/10 07:42:11;;;;;;;;;;;;;;;19.87;28.87;95963.91;5017571;28;20236;-67
2022/05/10 07:44:37;;;;;;;;;;;;;;;19.49;29.02;95965.03;5014678;28;20053;-67
2022/05/10 07:47:03;;;;;;;;;;;;;;;19.72;28.77;95964.31;5016155;28;20012;-67
2022/05/10 07:49:28;;;;;;;;;;;;;;;19.21;29.81;95965.31;5015975;28;20274;-67
2022/05/10 07:51:53;;;;;;;;;;;;;;;19.95;29.25;95968.13;5009318;28;19985;-67
2022/05/10 07:54:19;;;;;;;;;;;;;;;20.60;27.69;95966.53;5009599;28;19960;-67
2022/05/10 07:56:44;;;;;;;;;;;;;;;20.18;27.97;95963.88;5007513;28;20093;-67
2022/05/10 07:59:09;;;;;;;;;;;;;;;20.82;28.00;95965.16;5008577;28;20009;-67
2022/05/10 08:01:34;;;;;;;;;;;;;;;20.80;27.31;95956.47;5013051;28;19963;-67
2022/05/10 08:04:00;;;;;;;;;;;;;;;21.20;26.95;95958.41;5017003;28;20032;-67
2022/05/10 08:06:26;;;;;;;;;;;;;;;21.62;26.00;95962.81;5013851;28;20341;-67
2022/05/10 08:08:51;;;;;;;;;;;;;;;21.25;27.42;95960.41;5010743;28;19933;-67
2022/05/10 08:11:16;;;;;;;;;;;;;;;20.87;26.76;95959.84;5013035;28;20245;-67
2022/05/10 08:13:41;;;;;;;;;;;;;;;21.10;27.25;95961.72;5016911;28;19969;-67
2022/05/10 08:16:09;;;;;;;;;;;;;;;22.00;25.40;95957.03;5002337;28;20417;-66
2022/05/10 08:18:36;;;;;;;;;;;;;;;21.07;27.13;95953.28;5017534;28;19956;-67
2022/05/10 08:21:01;;;;;;;;;;;;;;;21.09;27.08;95953.84;5008887;28;20007;-66
2022/05/10 08:23:29;;;;;;;;;;;;;;;21.18;27.20;95957.00;5017965;28;19986;-67
2022/05/10 08:25:55;;;;;;;;;;;;;;;20.82;26.17;95949.75;5010436;28;19966;-66
2022/05/10 08:28:22;;;;;;;;;;;;;;;20.83;26.23;95948.69;5016630;28;19937;-67
2022/05/10 08:30:47;;;;;;;;;;;;;;;20.28;27.33;95957.91;5009479;28;20375;-67
2022/05/10 08:33:16;;;;;;;;;;;;;;;19.91;27.51;95948.88;5015675;28;19972;-67
2022/05/10 08:35:42;;;;;;;;;;;;;;;20.56;27.39;95951.03;5017657;28;19942;-67
2022/05/10 08:38:07;;;;;;;;;;;;;;;21.07;26.85;95950.56;5016554;28;19988;-67
2022/05/10 08:40:34;;;;;;;;;;;;;;;20.78;27.30;95953.16;5019930;28;19943;-67
2022/05/10 08:43:00;;;;;;;;;;;;;;;20.82;27.10;95951.63;5020059;28;20453;-67
2022/05/10 08:45:26;;;;;;;;;;;;;;;21.10;26.83;95950.91;5020348;28;19977;-66
2022/05/10 08:47:51;;;;;;;;;;;;;;;20.86;27.20;95950.94;5018457;28;20263;-66
2022/05/10 08:50:16;;;;;;;;;;;;;;;20.41;26.67;95946.06;5013279;28;19968;-67
2022/05/10 08:52:43;;;;;;;;;;;;;;;20.01;27.58;95945.66;5019749;28;19969;-67
2022/05/10 08:55:08;;;;;;;;;;;;;;;20.23;26.88;95945.13;5017293;28;19975;-67
2022/05/10 08:57:37;;;;;;;;;;;;;;;20.15;26.28;95930.03;5016284;28;19966;-67
2022/05/10 09:00:06;;;;;;;;;;;;;;;19.23;26.86;95940.00;5012071;28;19948;-67
2022/05/10 09:02:43;;;;;;;;;;;;;;;20.48;26.52;95938.66;5014059;28;19955;-67
2022/05/10 09:05:27;;;;;;;;;;;;;;;20.66;25.45;95940.47;5009208;28;19989;-66
2022/05/10 09:07:58;;;;;;;;;;;;;;;21.16;25.90;95930.19;5017265;28;19935;-67
2022/05/10 09:10:27;;;;;;;;;;;;;;;20.33;25.04;95925.63;4997917;28;19999;-67
2022/05/10 09:12:58;;;;;;;;;;;;;;;19.81;26.39;95935.91;5010142;28;20237;-67
2022/05/10 09:15:23;;;;;;;;;;;;;;;19.88;26.72;95926.91;5007053;28;20322;-67
2022/05/10 09:17:48;;;;;;;;;;;;;;;20.86;25.32;95923.88;5020080;28;19955;-67
2022/05/10 09:20:14;;;;;;;;;;;;;;;21.66;25.52;95924.41;5014273;28;19952;-67
2022/05/10 09:22:48;;;;;;;;;;;;;;;21.19;26.09;95921.59;5016343;28;20729;-67
2022/05/10 09:25:16;;;;;;;;;;;;;;;22.10;24.12;95921.16;5017008;28;20060;-66
2022/05/10 09:27:42;;;;;;;;;;;;;;;22.33;24.83;95917.44;5011934;28;19998;-66
2022/05/10 09:30:07;;;;;;;;;;;;;;;22.52;23.11;95907.19;5014107;28;19993;-67
2022/05/10 09:35:21;;;;;;;;;;;;;;;21.23;24.25;95919.22;5016695;28;19957;-67
2022/05/10 09:37:53;;;;;;;;;;;;;;;21.57;23.64;95913.97;5015936;28;19960;-67
2022/05/10 09:40:19;;;;;;;;;;;;;;;21.83;23.26;95906.31;5020016;28;20196;-67
2022/05/10 09:42:45;;;;;;;;;;;;;;;21.86;24.22;95907.72;5017236;28;19925;-67
2022/05/10 09:45:20;;;;;;;;;;;;;;;22.78;23.23;95907.56;5015606;28;19951;-67
2022/05/10 09:48:04;;;;;;;;;;;;;;;22.92;23.87;95902.59;5009873;28;20374;-67
2022/05/10 09:50:30;;;;;;;;;;;;;;;22.01;23.22;95904.47;5018397;28;19925;-67
2022/05/10 09:53:09;;;;;;;;;;;;;;;23.67;22.46;95901.34;5017293;28;19925;-66
2022/05/10 09:55:34;;;;;;;;;;;;;;;22.00;23.38;95905.53;5017472;28;19928;-66
2022/05/10 09:58:15;;;;;;;;;;;;;;;22.82;23.02;95897.03;5005215;28;19932;-66
2022/05/10 10:00:45;;;;;;;;;;;;;;;23.61;21.88;95901.50;5034022;28;20000;-66
2022/05/10 10:03:21;;;;;;;;;;;;;;;18.36;27.70;95908.25;5013414;28;19960;-66
2022/05/10 10:05:47;;;;;;;;;;;;;;;22.69;22.07;95892.78;5013407;28;19936;-67
2022/05/10 10:08:12;;;;;;;;;;;;;;;20.87;23.54;95893.06;5013266;28;19955;-66
2022/05/10 10:10:37;;;;;;;;;;;;;;;22.73;22.84;95902.06;5004112;28;19957;-67
2022/05/10 10:13:21;;;;;;;;;;;;;;;23.49;22.17;95896.25;5012187;28;20253;-67
2022/05/10 10:15:46;;;;;;;;;;;;;;;23.08;22.24;95900.06;5015514;28;19931;-67
2022/05/10 10:18:13;;;;;;;;;;;;;;;23.58;20.62;95897.41;5012240;28;20013;-66
2022/05/10 10:20:40;;;;;;;;;;;;;;;21.98;21.60;95903.06;5018520;28;20069;-67
2022/05/10 10:23:25;;;;;;;;;;;;;;;22.17;22.30;95892.00;5011000;28;19979;-67
2022/05/10 10:25:51;;;;;;;;;;;;;;;22.50;22.16;95893.03;5011593;28;19925;-66
2022/05/10 10:28:23;;;;;;;;;;;;;;;22.13;22.79;95888.94;5009316;28;19928;-67
2022/05/10 10:30:59;;;;;;;;;;;;;;;21.63;23.21;95895.91;5015053;28;19987;-66
2022/05/10 10:33:36;;;;;;;;;;;;;;;22.33;22.43;95890.31;5003883;28;20533;-66
2022/05/10 10:36:18;;;;;;;;;;;;;;;22.90;22.87;95883.03;5018208;28;20567;-66
2022/05/10 10:38:52;;;;;;;;;;;;;;;22.74;22.97;95884.72;5009712;28;20171;-67
2022/05/10 10:41:44;;;;;;;;;;;;;;;22.81;23.59;95878.28;5018098;28;20404;-67
2022/05/10 10:44:13;;;;;;;;;;;;;;;21.88;22.18;95883.88;5009927;28;19945;-66
2022/05/10 10:46:40;;;;;;;;;;;;;;;22.18;23.58;95865.69;5009347;28;20374;-66
2022/05/10 10:49:12;;;;;;;;;;;;;;;21.31;24.74;95870.13;5009481;28;19937;-66
2022/05/10 10:51:38;;;;;;;;;;;;;;;21.77;24.10;95866.63;5016117;28;20006;-66
2022/05/10 10:54:03;;;;;;;;;;;;;;;20.91;25.72;95874.47;5016113;28;19965;-66
2022/05/10 10:56:35;;;;;;;;;;;;;;;22.50;22.84;95865.09;5013748;28;20401;-66
2022/05/10 10:59:23;;;;;;;;;;;;;;;21.60;24.67;95867.44;5006923;28;19951;-66
2022/05/10 11:02:27;;;;;;;;;;;;;;;20.84;25.69;95880.00;5007897;28;20013;-67
2022/05/10 11:04:52;;;;;;;;;;;;;;;21.64;24.82;95868.59;4969634;28;19932;-66
2022/05/10 11:07:48;;;;;;;;;;;;;;;21.66;25.50;95862.94;4969473;28;19950;-67
2022/05/10 11:10:24;;;;;;;;;;;;;;;22.39;22.62;95845.97;4978687;28;20396;-67
2022/05/10 11:12:59;;;;;;;;;;;;;;;23.11;22.76;95860.75;5012650;28;20344;-67
2022/05/10 11:15:50;;;;;;;;;;;;;;;21.92;21.38;95849.84;5004162;28;20584;-67
2022/05/10 11:18:28;;;;;;;;;;;;;;;22.14;21.06;95840.97;4999468;28;21589;-67
2022/05/10 11:21:12;;;;;;;;;;;;;;;23.20;20.98;95839.41;5008161;28;19959;-67
2022/05/10 11:23:40;;;;;;;;;;;;;;;22.83;21.23;95838.13;5010055;28;19968;-67
2022/05/10 11:26:24;;;;;;;;;;;;;;;22.86;21.73;95838.47;5005428;28;19964;-67
2022/05/10 11:28:49;;;;;;;;;;;;;;;23.70;19.80;95826.63;5007256;28;19943;-67
2022/05/10 11:31:17;;;;;;;;;;;;;;;21.20;21.95;95824.94;4998415;28;20147;-67
2022/05/10 11:34:01;;;;;;;;;;;;;;;24.01;19.44;95824.19;4989150;28;19971;-66
2022/05/10 11:36:30;;;;;;;;;;;;;;;24.00;18.66;95825.25;5001295;28;20459;-66
2022/05/10 11:38:58;;;;;;;;;;;;;;;24.02;18.20;95825.00;5007582;28;19952;-66
2022/05/10 11:41:41;;;;;;;;;;;;;;;23.96;19.51;95828.78;4994787;28;19936;-66
2022/05/10 11:44:25;;;;;;;;;;;;;;;24.28;18.46;95827.91;5019184;28;19921;-66
2022/05/10 11:46:50;;;;;;;;;;;;;;;24.61;16.16;95819.69;5006778;28;20328;-66
2022/05/10 11:49:15;;;;;;;;;;;;;;;24.26;16.50;95820.00;5014981;28;19925;-66
2022/05/10 11:51:43;;;;;;;;;;;;;;;22.91;18.07;95816.81;5011032;28;20491;-67
2022/05/10 11:54:16;;;;;;;;;;;;;;;21.53;19.74;95820.72;5005493;28;20379;-66
2022/05/10 11:56:42;;;;;;;;;;;;;;;23.28;18.37;95807.22;4994778;28;20261;-66
2022/05/10 11:59:23;;;;;;;;;;;;;;;21.38;20.36;95811.25;5002445;28;20178;-66
2022/05/10 12:01:49;;;;;;;;;;;;;;;24.06;17.70;95807.06;5011014;28;19959;-67
2022/05/10 12:04:40;;;;;;;;;;;;;;;23.87;18.38;95798.53;5008659;28;20368;-67
2022/05/10 12:07:26;;;;;;;;;;;;;;;24.03;18.15;95805.72;5008154;28;20334;-67
2022/05/10 12:09:51;;;;;;;;;;;;;;;23.61;17.54;95799.09;5007420;28;20003;-66
2022/05/10 12:12:39;;;;;;;;;;;;;;;22.45;17.92;95797.19;5018619;28;19983;-67
2022/05/10 12:23:19;;;;;;;;;;;;;;;22.68;19.21;95787.22;5011151;28;20034;-67
2022/05/10 12:25:59;;;;;;;;;;;;;;;23.36;18.83;95791.53;5004450;28;19925;-66
2022/05/10 12:28:53;;;;;;;;;;;;;;;23.39;19.03;95785.59;5009329;28;19978;-67
2022/05/10 12:31:22;;;;;;;;;;;;;;;22.09;20.58;95787.50;5004998;28;20711;-66
2022/05/10 12:34:03;;;;;;;;;;;;;;;22.96;18.75;95783.50;5011261;28;20679;-66
2022/05/10 12:36:32;;;;;;;;;;;;;;;23.58;18.04;95777.06;5005473;28;19928;-66
2022/05/10 12:39:15;;;;;;;;;;;;;;;24.82;17.17;95758.00;5013905;28;20337;-66
2022/05/10 12:41:46;;;;;;;;;;;;;;;24.75;15.54;95779.22;5009090;28;20150;-66
2022/05/10 12:44:30;;;;;;;;;;;;;;;23.92;16.11;95787.69;5003021;28;20225;-66
2022/05/10 12:47:15;;;;;;;;;;;;;;;23.42;16.99;95763.34;4998594;28;20182;-66
2022/05/10 12:49:47;;;;;;;;;;;;;;;22.80;19.20;95774.34;5013158;28;19925;-66
2022/05/10 12:52:22;;;;;;;;;;;;;;;21.49;20.50;95762.69;5017122;28;19966;-66
2022/05/10 12:54:48;;;;;;;;;;;;;;;22.94;19.39;95752.25;4993351;28;20152;-66
2022/05/10 12:57:21;;;;;;;;;;;;;;;23.32;18.20;95739.63;5017037;28;19925;-66
2022/05/10 13:00:11;;;;;;;;;;;;;;;23.83;19.17;95735.72;4998868;28;20390;-66
2022/05/10 13:02:37;;;;;;;;;;;;;;;23.54;16.81;95744.16;5007721;28;20368;-66
2022/05/10 13:05:03;;;;;;;;;;;;;;;24.02;16.72;95738.00;5013828;28;19925;-66
2022/05/10 13:07:31;;;;;;;;;;;;;;;23.46;16.81;95745.47;5010892;28;19948;-66
2022/05/10 13:09:58;;;;;;;;;;;;;;;23.75;16.73;95733.47;5012053;28;20507;-66
2022/05/10 13:12:25;;;;;;;;;;;;;;;23.71;18.07;95737.75;5011522;28;20015;-66